sensor_id;sensor_type;location;lat;lon;timestamp;P1;durP1;ratioP1;P2;durP2;ratioP2
20772;SDS011;10546;50.674;4.616;2023-03-01T06:14:01;25.27;;;13.80;;
20772;SDS011;10546;50.674;4.616;2023-03-01T06:16:27;29.30;;;14.67;;
20772;SDS011;10546;50.674;4.616;2023-03-01T06:18:53;27.10;;;14.13;;
20772;SDS011;10546;50.674;4.616;2023-03-01T06:21:18;30.27;;;15.30;;
20772;SDS011;10546;50.674;4.616;2023-03-01T06:23:44;26.80;;;14.57;;
20772;SDS011;10546;50.674;4.616;2023-03-01T06:26:10;21.67;;;13.57;;
20772;SDS011;10546;50.674;4.616;2023-03-01T06:28:35;28.60;;;15.03;;
20772;SDS011;10546;50.674;4.616;2023-03-01T06:31:01;25.60;;;14.60;;
20772;SDS011;10546;50.674;4.616;2023-03-01T06:33:27;30.67;;;15.30;;
20772;SDS011;10546;50.674;4.616;2023-03-01T06:35:55;29.73;;;14.57;;
20772;SDS011;10546;50.674;4.616;2023-03-01T06:38:21;25.47;;;14.53;;
20772;SDS011;10546;50.674;4.616;2023-03-01T06:40:54;25.43;;;14.33;;
20772;SDS011;10546;50.674;4.616;2023-03-01T06:43:21;28.83;;;15.03;;
20772;SDS011;10546;50.674;4.616;2023-03-01T06:45:48;23.47;;;13.07;;
20772;SDS011;10546;50.674;4.616;2023-03-01T06:48:14;25.53;;;14.97;;
20772;SDS011;10546;50.674;4.616;2023-03-01T06:50:40;25.37;;;14.70;;
20772;SDS011;10546;50.674;4.616;2023-03-01T06:53:05;26.33;;;14.07;;
20772;SDS011;10546;50.674;4.616;2023-03-01T06:55:31;21.87;;;12.87;;
20772;SDS011;10546;50.674;4.616;2023-03-01T06:57:57;26.20;;;14.10;;
20772;SDS011;10546;50.674;4.616;2023-03-01T07:00:24;27.43;;;13.97;;
20772;SDS011;10546;50.674;4.616;2023-03-01T07:02:50;25.20;;;13.73;;
20772;SDS011;10546;50.674;4.616;2023-03-01T07:05:16;28.97;;;14.73;;
20772;SDS011;10546;50.674;4.616;2023-03-01T07:07:42;23.47;;;13.77;;
20772;SDS011;10546;50.674;4.616;2023-03-01T07:10:09;25.57;;;14.57;;
20772;SDS011;10546;50.674;4.616;2023-03-01T07:12:35;34.50;;;13.83;;
20772;SDS011;10546;50.674;4.616;2023-03-01T07:15:00;19.13;;;11.30;;
20772;SDS011;10546;50.674;4.616;2023-03-01T07:17:26;23.90;;;13.87;;
20772;SDS011;10546;50.674;4.616;2023-03-01T07:19:52;24.23;;;13.57;;
20772;SDS011;10546;50.674;4.616;2023-03-01T07:22:18;23.33;;;13.27;;
20772;SDS011;10546;50.674;4.616;2023-03-01T07:24:44;24.30;;;13.20;;
20772;SDS011;10546;50.674;4.616;2023-03-01T07:27:09;22.60;;;13.47;;
20772;SDS011;10546;50.674;4.616;2023-03-01T07:29:35;23.90;;;12.80;;
20772;SDS011;10546;50.674;4.616;2023-03-01T07:32:02;24.63;;;13.70;;
20772;SDS011;10546;50.674;4.616;2023-03-01T07:34:30;23.33;;;12.43;;
20772;SDS011;10546;50.674;4.616;2023-03-01T07:36:55;22.63;;;12.07;;
20772;SDS011;10546;50.674;4.616;2023-03-01T07:39:21;20.40;;;12.03;;
20772;SDS011;10546;50.674;4.616;2023-03-01T07:41:50;24.20;;;10.90;;
20772;SDS011;10546;50.674;4.616;2023-03-01T07:44:15;16.20;;;10.03;;
20772;SDS011;10546;50.674;4.616;2023-03-01T07:46:42;18.73;;;10.83;;
20772;SDS011;10546;50.674;4.616;2023-03-01T07:49:08;21.77;;;10.27;;
20772;SDS011;10546;50.674;4.616;2023-03-01T07:51:34;14.60;;;9.73;;
20772;SDS011;10546;50.674;4.616;2023-03-01T07:53:59;18.50;;;10.43;;
20772;SDS011;10546;50.674;4.616;2023-03-01T07:56:25;20.57;;;10.37;;
20772;SDS011;10546;50.674;4.616;2023-03-01T07:58:51;17.30;;;10.43;;
20772;SDS011;10546;50.674;4.616;2023-03-01T08:01:18;20.30;;;10.97;;
20772;SDS011;10546;50.674;4.616;2023-03-01T08:03:45;14.53;;;9.87;;
20772;SDS011;10546;50.674;4.616;2023-03-01T08:06:11;17.20;;;11.00;;
20772;SDS011;10546;50.674;4.616;2023-03-01T08:08:38;16.20;;;10.50;;
20772;SDS011;10546;50.674;4.616;2023-03-01T08:11:05;17.23;;;10.13;;
20772;SDS011;10546;50.674;4.616;2023-03-01T08:13:32;18.53;;;10.43;;
20772;SDS011;10546;50.674;4.616;2023-03-01T08:16:02;18.73;;;10.63;;
20772;SDS011;10546;50.674;4.616;2023-03-01T08:18:32;16.17;;;10.43;;
20772;SDS011;10546;50.674;4.616;2023-03-01T08:21:01;18.20;;;11.27;;
20772;SDS011;10546;50.674;4.616;2023-03-01T08:23:30;18.20;;;10.90;;
20772;SDS011;10546;50.674;4.616;2023-03-01T08:26:13;17.67;;;10.57;;
20772;SDS011;10546;50.674;4.616;2023-03-01T08:28:41;22.37;;;10.83;;
20772;SDS011;10546;50.674;4.616;2023-03-01T08:31:13;17.17;;;10.37;;
20772;SDS011;10546;50.674;4.616;2023-03-01T08:33:39;18.83;;;11.40;;
20772;SDS011;10546;50.674;4.616;2023-03-01T08:36:05;21.00;;;11.30;;
20772;SDS011;10546;50.674;4.616;2023-03-01T08:38:32;17.27;;;11.33;;
20772;SDS011;10546;50.674;4.616;2023-03-01T08:40:59;17.03;;;10.50;;
20772;SDS011;10546;50.674;4.616;2023-03-01T08:43:26;17.67;;;10.67;;
20772;SDS011;10546;50.674;4.616;2023-03-01T08:45:53;17.63;;;10.80;;
20772;SDS011;10546;50.674;4.616;2023-03-01T08:48:28;17.27;;;10.90;;
20772;SDS011;10546;50.674;4.616;2023-03-01T08:51:09;20.30;;;11.07;;
20772;SDS011;10546;50.674;4.616;2023-03-01T08:53:52;21.17;;;11.43;;
20772;SDS011;10546;50.674;4.616;2023-03-01T08:56:18;13.40;;;8.40;;
20772;SDS011;10546;50.674;4.616;2023-03-01T08:58:45;24.27;;;11.57;;
20772;SDS011;10546;50.674;4.616;2023-03-01T09:01:14;19.07;;;11.07;;
20772;SDS011;10546;50.674;4.616;2023-03-01T09:03:43;18.77;;;11.00;;
20772;SDS011;10546;50.674;4.616;2023-03-01T09:06:10;20.70;;;11.57;;
20772;SDS011;10546;50.674;4.616;2023-03-01T09:08:40;22.10;;;11.60;;
20772;SDS011;10546;50.674;4.616;2023-03-01T09:11:08;20.30;;;11.30;;
20772;SDS011;10546;50.674;4.616;2023-03-01T09:13:35;17.43;;;10.83;;
20772;SDS011;10546;50.674;4.616;2023-03-01T09:16:02;19.53;;;11.30;;
20772;SDS011;10546;50.674;4.616;2023-03-01T09:18:29;15.60;;;9.60;;
20772;SDS011;10546;50.674;4.616;2023-03-01T09:21:02;19.23;;;11.93;;
20772;SDS011;10546;50.674;4.616;2023-03-01T09:23:36;20.50;;;11.40;;
20772;SDS011;10546;50.674;4.616;2023-03-01T09:26:04;17.27;;;10.93;;
20772;SDS011;10546;50.674;4.616;2023-03-01T09:28:48;19.17;;;12.03;;
20772;SDS011;10546;50.674;4.616;2023-03-01T09:31:16;17.03;;;11.30;;
20772;SDS011;10546;50.674;4.616;2023-03-01T09:33:45;16.57;;;11.30;;
20772;SDS011;10546;50.674;4.616;2023-03-01T09:36:12;19.47;;;11.53;;
20772;SDS011;10546;50.674;4.616;2023-03-01T09:38:40;20.97;;;11.63;;
20772;SDS011;10546;50.674;4.616;2023-03-01T09:41:10;21.63;;;12.20;;
20772;SDS011;10546;50.674;4.616;2023-03-01T09:46:19;22.03;;;12.13;;
20772;SDS011;10546;50.674;4.616;2023-03-01T09:48:51;14.50;;;9.03;;
20772;SDS011;10546;50.674;4.616;2023-03-01T09:51:30;19.60;;;12.50;;
20772;SDS011;10546;50.674;4.616;2023-03-01T09:54:01;16.63;;;11.07;;
20772;SDS011;10546;50.674;4.616;2023-03-01T09:59:25;19.17;;;11.10;;
20772;SDS011;10546;50.674;4.616;2023-03-01T10:02:13;13.97;;;9.13;;
20772;SDS011;10546;50.674;4.616;2023-03-01T10:07:17;22.13;;;12.20;;
20772;SDS011;10546;50.674;4.616;2023-03-01T10:09:56;23.80;;;12.13;;
20772;SDS011;10546;50.674;4.616;2023-03-01T10:12:25;23.47;;;12.83;;
20772;SDS011;10546;50.674;4.616;2023-03-01T10:20:14;21.87;;;13.80;;
20772;SDS011;10546;50.674;4.616;2023-03-01T10:22:43;16.17;;;11.17;;
20772;SDS011;10546;50.674;4.616;2023-03-01T10:25:15;19.27;;;10.87;;
20772;SDS011;10546;50.674;4.616;2023-03-01T10:27:53;19.57;;;11.87;;
20772;SDS011;10546;50.674;4.616;2023-03-01T10:30:40;20.67;;;10.50;;
20772;SDS011;10546;50.674;4.616;2023-03-01T10:33:26;18.17;;;9.43;;
20772;SDS011;10546;50.674;4.616;2023-03-01T10:35:55;22.77;;;12.00;;
20772;SDS011;10546;50.674;4.616;2023-03-01T10:38:21;22.13;;;12.00;;
20772;SDS011;10546;50.674;4.616;2023-03-01T10:40:54;19.70;;;12.20;;
20772;SDS011;10546;50.674;4.616;2023-03-01T10:43:41;20.40;;;10.97;;
20772;SDS011;10546;50.674;4.616;2023-03-01T10:46:26;21.97;;;13.17;;
20772;SDS011;10546;50.674;4.616;2023-03-01T10:51:42;22.00;;;13.30;;
20772;SDS011;10546;50.674;4.616;2023-03-01T10:54:16;19.10;;;11.00;;
20772;SDS011;10546;50.674;4.616;2023-03-01T10:57:04;20.07;;;11.37;;
20772;SDS011;10546;50.674;4.616;2023-03-01T10:59:31;15.80;;;10.23;;
20772;SDS011;10546;50.674;4.616;2023-03-01T11:07:25;20.20;;;12.17;;
20772;SDS011;10546;50.674;4.616;2023-03-01T11:09:51;18.77;;;10.53;;
20772;SDS011;10546;50.674;4.616;2023-03-01T11:12:17;16.93;;;10.37;;
20772;SDS011;10546;50.674;4.616;2023-03-01T11:14:53;19.50;;;12.13;;
20772;SDS011;10546;50.674;4.616;2023-03-01T11:20:02;17.13;;;10.60;;
20772;SDS011;10546;50.674;4.616;2023-03-01T11:22:57;19.97;;;12.10;;
20772;SDS011;10546;50.674;4.616;2023-03-01T11:25:29;17.70;;;11.73;;
20772;SDS011;10546;50.674;4.616;2023-03-01T11:28:05;17.60;;;11.87;;
20772;SDS011;10546;50.674;4.616;2023-03-01T11:30:37;18.50;;;11.73;;
20772;SDS011;10546;50.674;4.616;2023-03-01T11:35:47;19.67;;;11.93;;
20772;SDS011;10546;50.674;4.616;2023-03-01T11:38:35;21.03;;;12.20;;
20772;SDS011;10546;50.674;4.616;2023-03-01T11:41:19;21.27;;;11.80;;
20772;SDS011;10546;50.674;4.616;2023-03-01T11:43:52;17.30;;;10.90;;
20772;SDS011;10546;50.674;4.616;2023-03-01T11:49:32;17.97;;;11.03;;
20772;SDS011;10546;50.674;4.616;2023-03-01T11:57:55;24.07;;;12.03;;
20772;SDS011;10546;50.674;4.616;2023-03-01T12:14:06;21.40;;;11.10;;
20772;SDS011;10546;50.674;4.616;2023-03-01T12:17:06;17.57;;;10.93;;
20772;SDS011;10546;50.674;4.616;2023-03-01T12:49:23;17.10;;;9.80;;
20772;SDS011;10546;50.674;4.616;2023-03-01T12:52:07;20.47;;;11.53;;
20772;SDS011;10546;50.674;4.616;2023-03-01T12:55:00;17.53;;;10.13;;
20772;SDS011;10546;50.674;4.616;2023-03-01T12:57:40;16.63;;;9.77;;
20772;SDS011;10546;50.674;4.616;2023-03-01T13:00:22;18.77;;;10.30;;
20772;SDS011;10546;50.674;4.616;2023-03-01T13:05:34;21.87;;;11.57;;
20772;SDS011;10546;50.674;4.616;2023-03-01T13:08:42;22.67;;;11.80;;
20772;SDS011;10546;50.674;4.616;2023-03-01T13:11:19;19.13;;;10.80;;
20772;SDS011;10546;50.674;4.616;2023-03-01T13:13:48;19.73;;;12.47;;
20772;SDS011;10546;50.674;4.616;2023-03-01T13:16:21;17.97;;;10.43;;
20772;SDS011;10546;50.674;4.616;2023-03-01T13:19:05;20.77;;;12.67;;
20772;SDS011;10546;50.674;4.616;2023-03-01T13:21:56;18.30;;;11.90;;
20772;SDS011;10546;50.674;4.616;2023-03-01T13:25:26;20.70;;;12.20;;
20772;SDS011;10546;50.674;4.616;2023-03-01T13:27:51;21.80;;;11.67;;
20772;SDS011;10546;50.674;4.616;2023-03-01T13:33:47;18.90;;;11.33;;
20772;SDS011;10546;50.674;4.616;2023-03-01T13:38:57;24.13;;;14.67;;
20772;SDS011;10546;50.674;4.616;2023-03-01T13:46:56;18.73;;;11.87;;
20772;SDS011;10546;50.674;4.616;2023-03-01T13:49:42;22.47;;;13.30;;
20772;SDS011;10546;50.674;4.616;2023-03-01T13:54:59;22.07;;;13.37;;
20772;SDS011;10546;50.674;4.616;2023-03-01T13:57:37;24.97;;;12.47;;
20772;SDS011;10546;50.674;4.616;2023-03-01T14:08:37;15.27;;;9.07;;
20772;SDS011;10546;50.674;4.616;2023-03-01T14:16:53;20.07;;;11.00;;
20772;SDS011;10546;50.674;4.616;2023-03-01T14:19:35;17.30;;;8.40;;
20772;SDS011;10546;50.674;4.616;2023-03-01T14:24:59;16.10;;;10.27;;
20772;SDS011;10546;50.674;4.616;2023-03-01T14:28:20;17.63;;;10.27;;
20772;SDS011;10546;50.674;4.616;2023-03-01T14:30:50;12.90;;;6.33;;
20772;SDS011;10546;50.674;4.616;2023-03-01T14:36:10;14.63;;;8.43;;
20772;SDS011;10546;50.674;4.616;2023-03-01T14:38:41;16.70;;;9.70;;
20772;SDS011;10546;50.674;4.616;2023-03-01T14:41:18;16.40;;;10.10;;
20772;SDS011;10546;50.674;4.616;2023-03-01T14:43:48;16.83;;;9.50;;
20772;SDS011;10546;50.674;4.616;2023-03-01T14:46:34;14.77;;;8.47;;
20772;SDS011;10546;50.674;4.616;2023-03-01T14:49:35;17.33;;;9.23;;
20772;SDS011;10546;50.674;4.616;2023-03-01T14:52:06;18.80;;;10.57;;
20772;SDS011;10546;50.674;4.616;2023-03-01T14:54:41;15.27;;;8.20;;
20772;SDS011;10546;50.674;4.616;2023-03-01T14:57:13;15.27;;;8.83;;
20772;SDS011;10546;50.674;4.616;2023-03-01T14:59:44;25.23;;;10.13;;
20772;SDS011;10546;50.674;4.616;2023-03-01T15:02:13;19.87;;;9.93;;
20772;SDS011;10546;50.674;4.616;2023-03-01T15:04:43;15.63;;;7.87;;
20772;SDS011;10546;50.674;4.616;2023-03-01T15:07:12;19.10;;;8.53;;
20772;SDS011;10546;50.674;4.616;2023-03-01T15:09:40;19.17;;;10.33;;
20772;SDS011;10546;50.674;4.616;2023-03-01T15:14:57;20.90;;;10.43;;
20772;SDS011;10546;50.674;4.616;2023-03-01T15:19:55;20.97;;;11.50;;
20772;SDS011;10546;50.674;4.616;2023-03-01T15:22:20;16.73;;;10.83;;
20772;SDS011;10546;50.674;4.616;2023-03-01T15:24:48;20.87;;;11.33;;
20772;SDS011;10546;50.674;4.616;2023-03-01T15:27:16;23.50;;;9.13;;
20772;SDS011;10546;50.674;4.616;2023-03-01T15:29:56;16.20;;;9.67;;
20772;SDS011;10546;50.674;4.616;2023-03-01T15:32:27;17.27;;;10.03;;
20772;SDS011;10546;50.674;4.616;2023-03-01T15:35:32;20.60;;;11.47;;
20772;SDS011;10546;50.674;4.616;2023-03-01T15:38:26;17.93;;;10.73;;
20772;SDS011;10546;50.674;4.616;2023-03-01T15:41:03;20.47;;;10.87;;
20772;SDS011;10546;50.674;4.616;2023-03-01T15:43:50;23.90;;;12.33;;
20772;SDS011;10546;50.674;4.616;2023-03-01T15:46:21;21.70;;;11.77;;
20772;SDS011;10546;50.674;4.616;2023-03-01T15:49:00;19.30;;;10.70;;
20772;SDS011;10546;50.674;4.616;2023-03-01T15:51:32;21.90;;;11.83;;
20772;SDS011;10546;50.674;4.616;2023-03-01T15:54:00;21.50;;;11.43;;
20772;SDS011;10546;50.674;4.616;2023-03-01T15:56:41;19.50;;;11.53;;
20772;SDS011;10546;50.674;4.616;2023-03-01T15:59:08;20.20;;;10.47;;
20772;SDS011;10546;50.674;4.616;2023-03-01T16:01:36;15.90;;;9.27;;
20772;SDS011;10546;50.674;4.616;2023-03-01T16:04:02;16.37;;;9.30;;
20772;SDS011;10546;50.674;4.616;2023-03-01T16:06:28;19.43;;;10.43;;
20772;SDS011;10546;50.674;4.616;2023-03-01T16:08:57;18.87;;;10.20;;
20772;SDS011;10546;50.674;4.616;2023-03-01T16:11:23;20.50;;;10.10;;
20772;SDS011;10546;50.674;4.616;2023-03-01T16:13:48;17.60;;;10.50;;
20772;SDS011;10546;50.674;4.616;2023-03-01T16:16:15;18.60;;;10.20;;
20772;SDS011;10546;50.674;4.616;2023-03-01T16:18:46;16.60;;;9.80;;
20772;SDS011;10546;50.674;4.616;2023-03-01T16:21:13;13.80;;;7.50;;
20772;SDS011;10546;50.674;4.616;2023-03-01T16:23:47;25.67;;;13.07;;
20772;SDS011;10546;50.674;4.616;2023-03-01T16:26:13;13.63;;;8.30;;
20772;SDS011;10546;50.674;4.616;2023-03-01T16:28:39;14.80;;;8.77;;
20772;SDS011;10546;50.674;4.616;2023-03-01T16:31:06;20.40;;;9.97;;
20772;SDS011;10546;50.674;4.616;2023-03-01T16:33:31;14.50;;;8.87;;
20772;SDS011;10546;50.674;4.616;2023-03-01T16:35:58;15.10;;;7.87;;
20772;SDS011;10546;50.674;4.616;2023-03-01T16:38:26;15.70;;;9.80;;
20772;SDS011;10546;50.674;4.616;2023-03-01T16:40:52;18.97;;;10.20;;
20772;SDS011;10546;50.674;4.616;2023-03-01T16:43:18;21.10;;;9.30;;
20772;SDS011;10546;50.674;4.616;2023-03-01T16:45:44;12.53;;;6.80;;
20772;SDS011;10546;50.674;4.616;2023-03-01T16:48:11;13.90;;;7.20;;
20772;SDS011;10546;50.674;4.616;2023-03-01T16:50:37;16.30;;;9.57;;
20772;SDS011;10546;50.674;4.616;2023-03-01T16:53:03;19.47;;;9.90;;
20772;SDS011;10546;50.674;4.616;2023-03-01T16:55:28;20.10;;;10.27;;
20772;SDS011;10546;50.674;4.616;2023-03-01T16:57:54;18.30;;;9.83;;
20772;SDS011;10546;50.674;4.616;2023-03-01T17:00:20;19.93;;;10.37;;
20772;SDS011;10546;50.674;4.616;2023-03-01T17:02:45;17.57;;;9.77;;
20772;SDS011;10546;50.674;4.616;2023-03-01T17:05:11;17.47;;;9.90;;
20772;SDS011;10546;50.674;4.616;2023-03-01T17:07:37;19.10;;;9.87;;
20772;SDS011;10546;50.674;4.616;2023-03-01T17:10:04;17.53;;;9.70;;
20772;SDS011;10546;50.674;4.616;2023-03-01T17:12:32;25.43;;;11.80;;
20772;SDS011;10546;50.674;4.616;2023-03-01T17:14:59;18.33;;;10.13;;
20772;SDS011;10546;50.674;4.616;2023-03-01T17:17:25;19.63;;;10.80;;
20772;SDS011;10546;50.674;4.616;2023-03-01T17:19:51;16.67;;;9.30;;
20772;SDS011;10546;50.674;4.616;2023-03-01T17:22:18;16.17;;;9.47;;
20772;SDS011;10546;50.674;4.616;2023-03-01T17:24:44;16.63;;;9.07;;
20772;SDS011;10546;50.674;4.616;2023-03-01T17:27:11;15.50;;;9.50;;
20772;SDS011;10546;50.674;4.616;2023-03-01T17:29:37;18.30;;;9.30;;
20772;SDS011;10546;50.674;4.616;2023-03-01T17:32:03;17.27;;;9.87;;
20772;SDS011;10546;50.674;4.616;2023-03-01T17:34:30;20.87;;;10.73;;
20772;SDS011;10546;50.674;4.616;2023-03-01T17:36:56;18.07;;;9.87;;
20772;SDS011;10546;50.674;4.616;2023-03-01T17:39:22;17.00;;;10.30;;
20772;SDS011;10546;50.674;4.616;2023-03-01T17:41:52;16.07;;;9.03;;
20772;SDS011;10546;50.674;4.616;2023-03-01T17:44:18;16.47;;;9.30;;
20772;SDS011;10546;50.674;4.616;2023-03-01T17:46:44;18.47;;;10.10;;
20772;SDS011;10546;50.674;4.616;2023-03-01T17:49:10;18.70;;;8.20;;
20772;SDS011;10546;50.674;4.616;2023-03-01T17:51:35;21.93;;;10.33;;
20772;SDS011;10546;50.674;4.616;2023-03-01T17:54:02;16.63;;;9.23;;
20772;SDS011;10546;50.674;4.616;2023-03-01T17:56:28;19.00;;;9.43;;
20772;SDS011;10546;50.674;4.616;2023-03-01T17:58:53;14.13;;;8.97;;
20772;SDS011;10546;50.674;4.616;2023-03-01T18:01:20;17.30;;;8.73;;
20772;SDS011;10546;50.674;4.616;2023-03-01T18:03:46;20.67;;;10.20;;
20772;SDS011;10546;50.674;4.616;2023-03-01T18:06:15;20.37;;;9.23;;
20772;SDS011;10546;50.674;4.616;2023-03-01T18:08:43;18.67;;;10.03;;
20772;SDS011;10546;50.674;4.616;2023-03-01T18:11:10;17.93;;;9.73;;
20772;SDS011;10546;50.674;4.616;2023-03-01T18:13:36;17.43;;;9.13;;
20772;SDS011;10546;50.674;4.616;2023-03-01T18:16:04;15.63;;;8.73;;
20772;SDS011;10546;50.674;4.616;2023-03-01T18:18:34;16.90;;;9.57;;
20772;SDS011;10546;50.674;4.616;2023-03-01T18:21:01;17.60;;;9.00;;
20772;SDS011;10546;50.674;4.616;2023-03-01T18:23:27;20.73;;;10.80;;
20772;SDS011;10546;50.674;4.616;2023-03-01T18:25:58;15.93;;;9.43;;
20772;SDS011;10546;50.674;4.616;2023-03-01T18:28:36;15.20;;;8.57;;
20772;SDS011;10546;50.674;4.616;2023-03-01T18:31:04;19.87;;;10.13;;
20772;SDS011;10546;50.674;4.616;2023-03-01T18:33:32;17.30;;;9.67;;
20772;SDS011;10546;50.674;4.616;2023-03-01T18:35:59;27.30;;;9.93;;
20772;SDS011;10546;50.674;4.616;2023-03-01T18:38:25;21.60;;;11.03;;
20772;SDS011;10546;50.674;4.616;2023-03-01T18:40:51;21.77;;;11.10;;
20772;SDS011;10546;50.674;4.616;2023-03-01T18:43:17;20.30;;;10.43;;
20772;SDS011;10546;50.674;4.616;2023-03-01T18:45:43;21.97;;;11.33;;
20772;SDS011;10546;50.674;4.616;2023-03-01T18:48:09;22.03;;;10.83;;
20772;SDS011;10546;50.674;4.616;2023-03-01T18:50:39;22.00;;;11.43;;
20772;SDS011;10546;50.674;4.616;2023-03-01T18:53:05;21.40;;;10.67;;
20772;SDS011;10546;50.674;4.616;2023-03-01T18:55:34;22.80;;;11.60;;
20772;SDS011;10546;50.674;4.616;2023-03-01T18:58:01;18.60;;;10.30;;
20772;SDS011;10546;50.674;4.616;2023-03-01T19:00:26;19.47;;;10.37;;
20772;SDS011;10546;50.674;4.616;2023-03-01T19:02:52;22.67;;;11.00;;
20772;SDS011;10546;50.674;4.616;2023-03-01T19:05:17;20.13;;;11.10;;
20772;SDS011;10546;50.674;4.616;2023-03-01T19:07:43;31.07;;;15.60;;
20772;SDS011;10546;50.674;4.616;2023-03-01T19:10:09;33.13;;;14.87;;
20772;SDS011;10546;50.674;4.616;2023-03-01T19:12:35;28.33;;;13.00;;
20772;SDS011;10546;50.674;4.616;2023-03-01T19:15:02;21.50;;;11.50;;
20772;SDS011;10546;50.674;4.616;2023-03-01T19:17:29;46.83;;;19.60;;
20772;SDS011;10546;50.674;4.616;2023-03-01T19:19:55;43.60;;;17.47;;
20772;SDS011;10546;50.674;4.616;2023-03-01T19:22:21;32.43;;;15.07;;
20772;SDS011;10546;50.674;4.616;2023-03-01T19:24:47;28.53;;;14.83;;
20772;SDS011;10546;50.674;4.616;2023-03-01T19:27:13;29.67;;;14.10;;
20772;SDS011;10546;50.674;4.616;2023-03-01T19:29:39;27.53;;;14.77;;
20772;SDS011;10546;50.674;4.616;2023-03-01T19:32:04;26.57;;;13.47;;
20772;SDS011;10546;50.674;4.616;2023-03-01T19:34:30;25.50;;;12.73;;
20772;SDS011;10546;50.674;4.616;2023-03-01T19:36:57;30.13;;;13.23;;
20772;SDS011;10546;50.674;4.616;2023-03-01T19:39:22;29.90;;;14.73;;
20772;SDS011;10546;50.674;4.616;2023-03-01T19:41:48;26.50;;;12.27;;
20772;SDS011;10546;50.674;4.616;2023-03-01T19:44:14;36.47;;;17.27;;
20772;SDS011;10546;50.674;4.616;2023-03-01T19:46:40;28.67;;;12.23;;
20772;SDS011;10546;50.674;4.616;2023-03-01T19:49:06;25.80;;;13.80;;
20772;SDS011;10546;50.674;4.616;2023-03-01T19:51:32;32.27;;;15.50;;
20772;SDS011;10546;50.674;4.616;2023-03-01T19:54:00;28.93;;;13.50;;
20772;SDS011;10546;50.674;4.616;2023-03-01T19:56:26;24.53;;;12.40;;
20772;SDS011;10546;50.674;4.616;2023-03-01T19:58:52;42.77;;;18.07;;
20772;SDS011;10546;50.674;4.616;2023-03-01T20:01:24;31.50;;;16.10;;
20772;SDS011;10546;50.674;4.616;2023-03-01T20:03:53;31.10;;;16.13;;
20772;SDS011;10546;50.674;4.616;2023-03-01T20:06:19;32.90;;;16.87;;
20772;SDS011;10546;50.674;4.616;2023-03-01T20:08:46;22.37;;;11.73;;
20772;SDS011;10546;50.674;4.616;2023-03-01T20:11:12;29.83;;;13.50;;
20772;SDS011;10546;50.674;4.616;2023-03-01T20:13:39;30.70;;;15.93;;
20772;SDS011;10546;50.674;4.616;2023-03-01T20:16:05;27.23;;;12.20;;
20772;SDS011;10546;50.674;4.616;2023-03-01T20:18:31;28.63;;;13.87;;
20772;SDS011;10546;50.674;4.616;2023-03-01T20:20:58;22.90;;;12.80;;
20772;SDS011;10546;50.674;4.616;2023-03-01T20:23:24;27.80;;;12.73;;
20772;SDS011;10546;50.674;4.616;2023-03-01T20:25:50;43.93;;;17.23;;
20772;SDS011;10546;50.674;4.616;2023-03-01T20:28:16;50.07;;;19.77;;
20772;SDS011;10546;50.674;4.616;2023-03-01T20:30:43;76.03;;;31.63;;
20772;SDS011;10546;50.674;4.616;2023-03-01T20:33:10;35.00;;;16.70;;
20772;SDS011;10546;50.674;4.616;2023-03-01T20:35:36;28.07;;;14.50;;
20772;SDS011;10546;50.674;4.616;2023-03-01T20:38:05;30.53;;;15.00;;
20772;SDS011;10546;50.674;4.616;2023-03-01T20:40:31;33.43;;;15.13;;
20772;SDS011;10546;50.674;4.616;2023-03-01T20:42:56;36.17;;;17.60;;
20772;SDS011;10546;50.674;4.616;2023-03-01T20:45:22;84.97;;;29.17;;
20772;SDS011;10546;50.674;4.616;2023-03-01T20:47:49;34.03;;;16.07;;
20772;SDS011;10546;50.674;4.616;2023-03-01T20:50:15;37.67;;;18.73;;
20772;SDS011;10546;50.674;4.616;2023-03-01T20:52:42;26.83;;;14.23;;
20772;SDS011;10546;50.674;4.616;2023-03-01T20:55:08;32.13;;;14.73;;
20772;SDS011;10546;50.674;4.616;2023-03-01T20:57:34;38.33;;;19.97;;
20772;SDS011;10546;50.674;4.616;2023-03-01T21:00:00;30.20;;;15.40;;
20772;SDS011;10546;50.674;4.616;2023-03-01T21:02:27;26.27;;;12.77;;
20772;SDS011;10546;50.674;4.616;2023-03-01T21:04:52;35.20;;;17.57;;
20772;SDS011;10546;50.674;4.616;2023-03-01T21:07:18;28.93;;;15.27;;
20772;SDS011;10546;50.674;4.616;2023-03-01T21:09:43;31.00;;;15.37;;
